sensor_id;sensor_type;location;lat;lon;timestamp;temperature;humidity
13585;DHT22;6863;48.402;9.994;2022-07-24T00:00:06;19.80;99.90
13585;DHT22;6863;48.402;9.994;2022-07-24T00:02:32;19.80;99.90
13585;DHT22;6863;48.402;9.994;2022-07-24T00:04:58;19.80;99.90
13585;DHT22;6863;48.402;9.994;2022-07-24T00:07:25;19.80;99.90
13585;DHT22;6863;48.402;9.994;2022-07-24T00:09:51;19.80;99.90
13585;DHT22;6863;48.402;9.994;2022-07-24T00:12:17;19.80;99.90
13585;DHT22;6863;48.402;9.994;2022-07-24T00:14:42;19.80;99.90
13585;DHT22;6863;48.402;9.994;2022-07-24T00:17:08;19.70;99.90
13585;DHT22;6863;48.402;9.994;2022-07-24T00:19:33;19.70;99.90
13585;DHT22;6863;48.402;9.994;2022-07-24T00:21:59;19.60;99.90
13585;DHT22;6863;48.402;9.994;2022-07-24T00:24:27;19.60;99.90
13585;DHT22;6863;48.402;9.994;2022-07-24T00:26:52;19.60;99.90
13585;DHT22;6863;48.402;9.994;2022-07-24T00:29:18;19.60;99.90
13585;DHT22;6863;48.402;9.994;2022-07-24T00:31:44;19.50;99.90
13585;DHT22;6863;48.402;9.994;2022-07-24T00:34:09;19.50;99.90
13585;DHT22;6863;48.402;9.994;2022-07-24T00:36:35;19.40;99.90
13585;DHT22;6863;48.402;9.994;2022-07-24T00:39:00;19.40;99.90
13585;DHT22;6863;48.402;9.994;2022-07-24T00:41:26;19.30;99.90
13585;DHT22;6863;48.402;9.994;2022-07-24T00:44:05;19.20;99.90
13585;DHT22;6863;48.402;9.994;2022-07-24T00:46:32;19.20;99.90
13585;DHT22;6863;48.402;9.994;2022-07-24T00:49:02;19.10;99.90
13585;DHT22;6863;48.402;9.994;2022-07-24T00:51:28;19.10;99.90
13585;DHT22;6863;48.402;9.994;2022-07-24T00:53:54;19.10;99.90
13585;DHT22;6863;48.402;9.994;2022-07-24T00:56:20;19.10;99.90
13585;DHT22;6863;48.402;9.994;2022-07-24T00:58:47;19.00;99.90
13585;DHT22;6863;48.402;9.994;2022-07-24T01:01:13;18.90;99.90
13585;DHT22;6863;48.402;9.994;2022-07-24T01:03:39;18.90;99.90
13585;DHT22;6863;48.402;9.994;2022-07-24T01:06:06;18.90;99.90
13585;DHT22;6863;48.402;9.994;2022-07-24T01:08:33;18.90;99.90
13585;DHT22;6863;48.402;9.994;2022-07-24T01:11:03;18.90;99.90
13585;DHT22;6863;48.402;9.994;2022-07-24T01:13:29;18.80;99.90
13585;DHT22;6863;48.402;9.994;2022-07-24T01:15:56;18.90;99.90
13585;DHT22;6863;48.402;9.994;2022-07-24T01:18:21;18.80;99.90
13585;DHT22;6863;48.402;9.994;2022-07-24T01:20:48;18.80;99.90
13585;DHT22;6863;48.402;9.994;2022-07-24T01:23:13;18.70;99.90
13585;DHT22;6863;48.402;9.994;2022-07-24T01:25:40;18.70;99.90
13585;DHT22;6863;48.402;9.994;2022-07-24T01:28:05;18.60;99.90
13585;DHT22;6863;48.402;9.994;2022-07-24T01:30:31;18.60;99.90
13585;DHT22;6863;48.402;9.994;2022-07-24T01:32:57;18.60;99.90
13585;DHT22;6863;48.402;9.994;2022-07-24T01:35:23;18.50;99.90
13585;DHT22;6863;48.402;9.994;2022-07-24T01:37:48;18.50;99.90
13585;DHT22;6863;48.402;9.994;2022-07-24T01:40:14;18.50;99.90
13585;DHT22;6863;48.402;9.994;2022-07-24T01:42:39;18.50;99.90
13585;DHT22;6863;48.402;9.994;2022-07-24T01:45:06;18.40;99.90
13585;DHT22;6863;48.402;9.994;2022-07-24T01:47:31;18.40;99.90
13585;DHT22;6863;48.402;9.994;2022-07-24T01:49:57;18.40;99.90
13585;DHT22;6863;48.402;9.994;2022-07-24T01:52:23;18.30;99.90
13585;DHT22;6863;48.402;9.994;2022-07-24T01:54:51;18.20;99.90
13585;DHT22;6863;48.402;9.994;2022-07-24T01:57:17;18.20;99.90
13585;DHT22;6863;48.402;9.994;2022-07-24T01:59:42;18.20;99.90
13585;DHT22;6863;48.402;9.994;2022-07-24T02:02:08;18.30;99.90
13585;DHT22;6863;48.402;9.994;2022-07-24T02:04:33;18.30;99.90
13585;DHT22;6863;48.402;9.994;2022-07-24T02:06:59;18.30;99.90
13585;DHT22;6863;48.402;9.994;2022-07-24T02:09:25;18.20;99.90
13585;DHT22;6863;48.402;9.994;2022-07-24T02:11:51;18.20;99.90
13585;DHT22;6863;48.402;9.994;2022-07-24T02:14:17;18.20;99.90
13585;DHT22;6863;48.402;9.994;2022-07-24T02:16:42;18.20;99.90
13585;DHT22;6863;48.402;9.994;2022-07-24T02:19:08;18.20;99.90
13585;DHT22;6863;48.402;9.994;2022-07-24T02:21:34;18.30;99.90
13585;DHT22;6863;48.402;9.994;2022-07-24T02:24:00;18.20;99.90
13585;DHT22;6863;48.402;9.994;2022-07-24T02:26:25;18.20;99.90
13585;DHT22;6863;48.402;9.994;2022-07-24T02:28:51;18.10;99.90
13585;DHT22;6863;48.402;9.994;2022-07-24T02:31:17;18.10;99.90
13585;DHT22;6863;48.402;9.994;2022-07-24T02:33:43;18.10;99.90
13585;DHT22;6863;48.402;9.994;2022-07-24T02:36:08;18.00;99.90
13585;DHT22;6863;48.402;9.994;2022-07-24T02:38:34;18.00;99.90
13585;DHT22;6863;48.402;9.994;2022-07-24T02:40:59;17.90;99.90
13585;DHT22;6863;48.402;9.994;2022-07-24T02:43:25;17.90;99.90
13585;DHT22;6863;48.402;9.994;2022-07-24T02:45:51;17.80;99.90
13585;DHT22;6863;48.402;9.994;2022-07-24T02:48:16;17.70;99.90
13585;DHT22;6863;48.402;9.994;2022-07-24T02:50:42;17.70;99.90
13585;DHT22;6863;48.402;9.994;2022-07-24T02:53:07;17.60;99.90
13585;DHT22;6863;48.402;9.994;2022-07-24T02:55:33;17.50;99.90
13585;DHT22;6863;48.402;9.994;2022-07-24T02:57:59;17.60;99.90
13585;DHT22;6863;48.402;9.994;2022-07-24T03:00:24;17.60;99.90
13585;DHT22;6863;48.402;9.994;2022-07-24T03:02:50;17.60;99.90
13585;DHT22;6863;48.402;9.994;2022-07-24T03:05:16;17.60;99.90
13585;DHT22;6863;48.402;9.994;2022-07-24T03:07:41;17.60;99.90
13585;DHT22;6863;48.402;9.994;2022-07-24T03:10:09;17.60;99.90
13585;DHT22;6863;48.402;9.994;2022-07-24T03:12:35;17.60;99.90
13585;DHT22;6863;48.402;9.994;2022-07-24T03:15:01;17.60;99.90
13585;DHT22;6863;48.402;9.994;2022-07-24T03:17:26;17.50;99.90
13585;DHT22;6863;48.402;9.994;2022-07-24T03:19:52;17.50;99.90
13585;DHT22;6863;48.402;9.994;2022-07-24T03:22:18;17.40;99.90
13585;DHT22;6863;48.402;9.994;2022-07-24T03:24:43;17.40;99.90
13585;DHT22;6863;48.402;9.994;2022-07-24T03:27:09;17.30;99.90
13585;DHT22;6863;48.402;9.994;2022-07-24T03:29:35;17.30;99.90
13585;DHT22;6863;48.402;9.994;2022-07-24T03:32:00;17.30;99.90
13585;DHT22;6863;48.402;9.994;2022-07-24T03:34:26;17.20;99.90
13585;DHT22;6863;48.402;9.994;2022-07-24T03:36:52;17.20;99.90
13585;DHT22;6863;48.402;9.994;2022-07-24T03:39:17;17.20;99.90
13585;DHT22;6863;48.402;9.994;2022-07-24T03:41:43;17.10;99.90
13585;DHT22;6863;48.402;9.994;2022-07-24T03:44:09;17.10;99.90
13585;DHT22;6863;48.402;9.994;2022-07-24T03:46:34;17.10;99.90
13585;DHT22;6863;48.402;9.994;2022-07-24T03:49:00;17.10;99.90
13585;DHT22;6863;48.402;9.994;2022-07-24T03:51:26;17.00;99.90
13585;DHT22;6863;48.402;9.994;2022-07-24T03:53:51;17.00;99.90
13585;DHT22;6863;48.402;9.994;2022-07-24T03:56:17;17.00;99.90
13585;DHT22;6863;48.402;9.994;2022-07-24T03:58:43;17.00;99.90
13585;DHT22;6863;48.402;9.994;2022-07-24T04:01:08;17.00;99.90
13585;DHT22;6863;48.402;9.994;2022-07-24T04:03:35;17.00;99.90
13585;DHT22;6863;48.402;9.994;2022-07-24T04:06:05;17.00;99.90
13585;DHT22;6863;48.402;9.994;2022-07-24T04:08:31;17.00;99.90
13585;DHT22;6863;48.402;9.994;2022-07-24T04:10:57;17.00;99.90
13585;DHT22;6863;48.402;9.994;2022-07-24T04:13:24;17.00;99.90
13585;DHT22;6863;48.402;9.994;2022-07-24T04:15:50;17.10;99.90
13585;DHT22;6863;48.402;9.994;2022-07-24T04:18:15;17.10;99.90
13585;DHT22;6863;48.402;9.994;2022-07-24T04:20:41;17.10;99.90
13585;DHT22;6863;48.402;9.994;2022-07-24T04:23:07;17.10;99.90
13585;DHT22;6863;48.402;9.994;2022-07-24T04:25:32;17.20;99.90
13585;DHT22;6863;48.402;9.994;2022-07-24T04:28:00;17.20;99.90
13585;DHT22;6863;48.402;9.994;2022-07-24T04:30:26;17.30;99.90
13585;DHT22;6863;48.402;9.994;2022-07-24T04:32:52;17.30;99.90
13585;DHT22;6863;48.402;9.994;2022-07-24T04:35:18;17.40;99.90
13585;DHT22;6863;48.402;9.994;2022-07-24T04:37:43;17.40;99.90
13585;DHT22;6863;48.402;9.994;2022-07-24T04:40:10;17.50;99.90
13585;DHT22;6863;48.402;9.994;2022-07-24T04:42:36;17.50;99.90
13585;DHT22;6863;48.402;9.994;2022-07-24T04:45:02;17.60;99.90
13585;DHT22;6863;48.402;9.994;2022-07-24T04:47:28;17.60;99.90
13585;DHT22;6863;48.402;9.994;2022-07-24T04:49:53;17.70;99.90
13585;DHT22;6863;48.402;9.994;2022-07-24T04:52:19;17.70;99.90
13585;DHT22;6863;48.402;9.994;2022-07-24T04:54:44;17.70;99.90
13585;DHT22;6863;48.402;9.994;2022-07-24T04:57:10;17.70;99.90
13585;DHT22;6863;48.402;9.994;2022-07-24T04:59:36;17.80;99.90
13585;DHT22;6863;48.402;9.994;2022-07-24T05:02:01;17.80;99.90
13585;DHT22;6863;48.402;9.994;2022-07-24T05:04:28;17.90;99.90
13585;DHT22;6863;48.402;9.994;2022-07-24T05:06:54;17.90;99.90
13585;DHT22;6863;48.402;9.994;2022-07-24T05:09:19;18.00;99.90
13585;DHT22;6863;48.402;9.994;2022-07-24T05:11:45;18.20;99.90
13585;DHT22;6863;48.402;9.994;2022-07-24T05:14:11;18.20;99.90
13585;DHT22;6863;48.402;9.994;2022-07-24T05:16:36;18.30;99.90
13585;DHT22;6863;48.402;9.994;2022-07-24T05:19:03;18.40;99.90
13585;DHT22;6863;48.402;9.994;2022-07-24T05:21:29;18.40;99.90
13585;DHT22;6863;48.402;9.994;2022-07-24T05:23:55;18.40;99.90
13585;DHT22;6863;48.402;9.994;2022-07-24T05:26:20;18.50;99.90
13585;DHT22;6863;48.402;9.994;2022-07-24T05:28:46;18.70;99.90
13585;DHT22;6863;48.402;9.994;2022-07-24T05:31:12;18.80;99.90
13585;DHT22;6863;48.402;9.994;2022-07-24T05:33:37;18.80;99.90
13585;DHT22;6863;48.402;9.994;2022-07-24T05:36:04;18.80;99.90
13585;DHT22;6863;48.402;9.994;2022-07-24T05:38:29;18.90;99.90
13585;DHT22;6863;48.402;9.994;2022-07-24T05:40:55;19.00;99.90
13585;DHT22;6863;48.402;9.994;2022-07-24T05:43:21;19.10;99.90
13585;DHT22;6863;48.402;9.994;2022-07-24T05:45:47;19.30;99.90
13585;DHT22;6863;48.402;9.994;2022-07-24T05:48:12;19.30;99.90
13585;DHT22;6863;48.402;9.994;2022-07-24T05:50:39;19.50;99.90
13585;DHT22;6863;48.402;9.994;2022-07-24T05:53:05;19.60;99.90
13585;DHT22;6863;48.402;9.994;2022-07-24T05:55:30;19.80;99.90
13585;DHT22;6863;48.402;9.994;2022-07-24T05:57:56;19.90;99.90
13585;DHT22;6863;48.402;9.994;2022-07-24T06:00:21;20.00;99.90
13585;DHT22;6863;48.402;9.994;2022-07-24T06:02:47;20.10;99.90
13585;DHT22;6863;48.402;9.994;2022-07-24T06:05:16;20.20;99.90
13585;DHT22;6863;48.402;9.994;2022-07-24T06:07:43;20.30;99.90
13585;DHT22;6863;48.402;9.994;2022-07-24T06:10:09;20.40;99.90
13585;DHT22;6863;48.402;9.994;2022-07-24T06:12:35;20.50;99.90
13585;DHT22;6863;48.402;9.994;2022-07-24T06:15:01;20.60;99.90
13585;DHT22;6863;48.402;9.994;2022-07-24T06:17:26;20.80;99.90
13585;DHT22;6863;48.402;9.994;2022-07-24T06:19:52;21.10;99.90
13585;DHT22;6863;48.402;9.994;2022-07-24T06:22:17;21.40;99.90
13585;DHT22;6863;48.402;9.994;2022-07-24T06:24:43;21.60;99.90
13585;DHT22;6863;48.402;9.994;2022-07-24T06:27:08;21.90;99.90
13585;DHT22;6863;48.402;9.994;2022-07-24T06:29:34;22.10;99.90
13585;DHT22;6863;48.402;9.994;2022-07-24T06:32:00;22.30;99.90
13585;DHT22;6863;48.402;9.994;2022-07-24T06:34:25;22.50;99.30
13585;DHT22;6863;48.402;9.994;2022-07-24T06:36:51;22.70;98.70
13585;DHT22;6863;48.402;9.994;2022-07-24T06:39:18;22.90;98.30
13585;DHT22;6863;48.402;9.994;2022-07-24T06:41:44;23.10;98.00
13585;DHT22;6863;48.402;9.994;2022-07-24T06:44:10;23.20;97.70
13585;DHT22;6863;48.402;9.994;2022-07-24T06:46:35;23.40;97.60
13585;DHT22;6863;48.402;9.994;2022-07-24T06:49:01;23.70;96.70
13585;DHT22;6863;48.402;9.994;2022-07-24T06:51:26;23.90;95.90
13585;DHT22;6863;48.402;9.994;2022-07-24T06:53:52;24.00;95.60
13585;DHT22;6863;48.402;9.994;2022-07-24T06:56:17;24.00;95.40
13585;DHT22;6863;48.402;9.994;2022-07-24T06:58:43;24.20;95.00
13585;DHT22;6863;48.402;9.994;2022-07-24T07:01:09;24.30;94.70
13585;DHT22;6863;48.402;9.994;2022-07-24T07:03:34;24.10;94.60
13585;DHT22;6863;48.402;9.994;2022-07-24T07:06:00;24.20;94.50
13585;DHT22;6863;48.402;9.994;2022-07-24T07:08:26;24.10;94.20
13585;DHT22;6863;48.402;9.994;2022-07-24T07:10:51;24.20;94.20
13585;DHT22;6863;48.402;9.994;2022-07-24T07:13:17;24.50;94.00
13585;DHT22;6863;48.402;9.994;2022-07-24T07:15:42;24.90;93.40
13585;DHT22;6863;48.402;9.994;2022-07-24T07:18:08;25.00;92.60
13585;DHT22;6863;48.402;9.994;2022-07-24T07:20:34;25.10;92.00
13585;DHT22;6863;48.402;9.994;2022-07-24T07:22:59;25.20;91.60
13585;DHT22;6863;48.402;9.994;2022-07-24T07:25:25;25.40;91.60
13585;DHT22;6863;48.402;9.994;2022-07-24T07:27:51;25.70;91.00
13585;DHT22;6863;48.402;9.994;2022-07-24T07:30:16;25.60;90.90
13585;DHT22;6863;48.402;9.994;2022-07-24T07:32:42;25.90;90.10
13585;DHT22;6863;48.402;9.994;2022-07-24T07:35:08;26.50;88.00
13585;DHT22;6863;48.402;9.994;2022-07-24T07:37:34;26.90;84.50
13585;DHT22;6863;48.402;9.994;2022-07-24T07:40:00;27.30;83.20
13585;DHT22;6863;48.402;9.994;2022-07-24T07:42:26;27.70;80.30
13585;DHT22;6863;48.402;9.994;2022-07-24T07:44:51;27.90;77.00
13585;DHT22;6863;48.402;9.994;2022-07-24T07:47:17;27.80;77.00
13585;DHT22;6863;48.402;9.994;2022-07-24T07:49:42;27.90;77.50
13585;DHT22;6863;48.402;9.994;2022-07-24T07:52:08;28.30;76.20
13585;DHT22;6863;48.402;9.994;2022-07-24T07:54:35;28.80;74.50
13585;DHT22;6863;48.402;9.994;2022-07-24T07:57:00;28.90;73.70
13585;DHT22;6863;48.402;9.994;2022-07-24T07:59:26;29.00;72.80
13585;DHT22;6863;48.402;9.994;2022-07-24T08:01:52;28.50;74.00
13585;DHT22;6863;48.402;9.994;2022-07-24T08:04:17;28.40;74.70
13585;DHT22;6863;48.402;9.994;2022-07-24T08:06:43;28.50;74.30
13585;DHT22;6863;48.402;9.994;2022-07-24T08:09:08;28.80;69.50
13585;DHT22;6863;48.402;9.994;2022-07-24T08:11:34;29.50;66.30
13585;DHT22;6863;48.402;9.994;2022-07-24T08:14:00;29.90;63.20
13585;DHT22;6863;48.402;9.994;2022-07-24T08:16:26;30.60;60.90
13585;DHT22;6863;48.402;9.994;2022-07-24T08:18:51;30.80;59.30
13585;DHT22;6863;48.402;9.994;2022-07-24T08:21:17;31.00;59.40
13585;DHT22;6863;48.402;9.994;2022-07-24T08:23:44;31.20;58.00
13585;DHT22;6863;48.402;9.994;2022-07-24T08:26:11;31.50;58.30
13585;DHT22;6863;48.402;9.994;2022-07-24T08:28:37;31.90;56.90
13585;DHT22;6863;48.402;9.994;2022-07-24T08:31:03;32.30;54.30
13585;DHT22;6863;48.402;9.994;2022-07-24T08:33:28;32.40;54.30
13585;DHT22;6863;48.402;9.994;2022-07-24T08:35:54;32.10;54.70
13585;DHT22;6863;48.402;9.994;2022-07-24T08:38:20;32.40;53.20
13585;DHT22;6863;48.402;9.994;2022-07-24T08:40:46;33.00;52.10
13585;DHT22;6863;48.402;9.994;2022-07-24T08:43:11;32.50;51.90
13585;DHT22;6863;48.402;9.994;2022-07-24T08:45:39;31.90;52.50
13585;DHT22;6863;48.402;9.994;2022-07-24T08:48:09;31.60;53.80
13585;DHT22;6863;48.402;9.994;2022-07-24T08:50:38;32.20;52.60
13585;DHT22;6863;48.402;9.994;2022-07-24T08:53:04;33.50;50.10
13585;DHT22;6863;48.402;9.994;2022-07-24T08:55:31;34.50;48.30
13585;DHT22;6863;48.402;9.994;2022-07-24T08:57:58;35.30;46.30
13585;DHT22;6863;48.402;9.994;2022-07-24T09:00:24;35.80;44.40
13585;DHT22;6863;48.402;9.994;2022-07-24T09:02:50;35.80;43.00
13585;DHT22;6863;48.402;9.994;2022-07-24T09:05:16;36.20;43.20
13585;DHT22;6863;48.402;9.994;2022-07-24T09:07:42;36.60;42.80
13585;DHT22;6863;48.402;9.994;2022-07-24T09:10:10;37.10;41.60
13585;DHT22;6863;48.402;9.994;2022-07-24T09:12:38;38.20;40.00
13585;DHT22;6863;48.402;9.994;2022-07-24T09:15:19;38.00;38.30
13585;DHT22;6863;48.402;9.994;2022-07-24T09:17:50;38.20;38.20
13585;DHT22;6863;48.402;9.994;2022-07-24T09:20:16;37.40;39.10
13585;DHT22;6863;48.402;9.994;2022-07-24T09:22:42;37.90;39.20
13585;DHT22;6863;48.402;9.994;2022-07-24T09:25:25;37.40;39.70
13585;DHT22;6863;48.402;9.994;2022-07-24T09:27:52;36.60;41.40
13585;DHT22;6863;48.402;9.994;2022-07-24T09:30:37;38.10;39.30
13585;DHT22;6863;48.402;9.994;2022-07-24T09:35:44;36.60;40.50
13585;DHT22;6863;48.402;9.994;2022-07-24T09:38:18;37.20;39.10
13585;DHT22;6863;48.402;9.994;2022-07-24T09:40:46;37.50;38.60
13585;DHT22;6863;48.402;9.994;2022-07-24T09:46:16;38.30;37.80
13585;DHT22;6863;48.402;9.994;2022-07-24T09:48:56;38.50;37.10
13585;DHT22;6863;48.402;9.994;2022-07-24T09:51:24;40.40;34.80
13585;DHT22;6863;48.402;9.994;2022-07-24T09:53:58;41.60;32.80
13585;DHT22;6863;48.402;9.994;2022-07-24T09:56:24;42.20;31.70
13585;DHT22;6863;48.402;9.994;2022-07-24T09:58:52;43.10;30.10
13585;DHT22;6863;48.402;9.994;2022-07-24T10:01:21;44.10;29.10
13585;DHT22;6863;48.402;9.994;2022-07-24T10:03:48;44.20;28.50
13585;DHT22;6863;48.402;9.994;2022-07-24T10:06:19;44.00;28.80
13585;DHT22;6863;48.402;9.994;2022-07-24T10:08:48;44.40;28.60
13585;DHT22;6863;48.402;9.994;2022-07-24T10:11:14;44.10;28.60
13585;DHT22;6863;48.402;9.994;2022-07-24T10:13:41;45.40;26.60
13585;DHT22;6863;48.402;9.994;2022-07-24T10:26:43;42.90;29.00
13585;DHT22;6863;48.402;9.994;2022-07-24T10:29:10;43.40;29.00
13585;DHT22;6863;48.402;9.994;2022-07-24T10:31:38;44.60;27.60
13585;DHT22;6863;48.402;9.994;2022-07-24T10:42:28;45.40;26.60
13585;DHT22;6863;48.402;9.994;2022-07-24T10:45:16;42.90;28.80
13585;DHT22;6863;48.402;9.994;2022-07-24T10:47:44;41.70;29.80
13585;DHT22;6863;48.402;9.994;2022-07-24T10:50:10;42.40;29.10
13585;DHT22;6863;48.402;9.994;2022-07-24T10:52:36;44.30;27.30
13585;DHT22;6863;48.402;9.994;2022-07-24T10:58:01;47.20;24.00
13585;DHT22;6863;48.402;9.994;2022-07-24T11:00:35;47.00;23.80
13585;DHT22;6863;48.402;9.994;2022-07-24T11:03:07;45.60;24.50
13585;DHT22;6863;48.402;9.994;2022-07-24T11:05:38;45.50;25.40
13585;DHT22;6863;48.402;9.994;2022-07-24T11:08:25;43.70;25.80
13585;DHT22;6863;48.402;9.994;2022-07-24T11:11:04;41.90;27.50
13585;DHT22;6863;48.402;9.994;2022-07-24T11:18:39;38.50;32.60
13585;DHT22;6863;48.402;9.994;2022-07-24T11:21:06;37.90;33.20
13585;DHT22;6863;48.402;9.994;2022-07-24T11:23:32;38.30;33.30
13585;DHT22;6863;48.402;9.994;2022-07-24T11:29:18;40.60;30.50
13585;DHT22;6863;48.402;9.994;2022-07-24T11:31:56;43.30;28.10
13585;DHT22;6863;48.402;9.994;2022-07-24T11:34:22;43.80;26.90
13585;DHT22;6863;48.402;9.994;2022-07-24T11:36:49;44.00;25.70
13585;DHT22;6863;48.402;9.994;2022-07-24T11:39:17;42.90;25.10
13585;DHT22;6863;48.402;9.994;2022-07-24T11:41:45;43.20;25.60
13585;DHT22;6863;48.402;9.994;2022-07-24T11:44:12;43.00;25.70
13585;DHT22;6863;48.402;9.994;2022-07-24T11:46:40;45.10;24.50
13585;DHT22;6863;48.402;9.994;2022-07-24T11:49:08;46.90;23.10
13585;DHT22;6863;48.402;9.994;2022-07-24T11:51:45;48.30;22.00
13585;DHT22;6863;48.402;9.994;2022-07-24T11:54:12;49.10;21.70
13585;DHT22;6863;48.402;9.994;2022-07-24T11:56:39;49.50;21.20
13585;DHT22;6863;48.402;9.994;2022-07-24T11:59:05;49.50;21.10
13585;DHT22;6863;48.402;9.994;2022-07-24T12:01:31;48.30;21.00
13585;DHT22;6863;48.402;9.994;2022-07-24T12:03:58;46.90;21.10
13585;DHT22;6863;48.402;9.994;2022-07-24T12:06:26;45.70;22.50
13585;DHT22;6863;48.402;9.994;2022-07-24T12:09:17;46.60;22.00
13585;DHT22;6863;48.402;9.994;2022-07-24T12:11:42;44.50;23.40
13585;DHT22;6863;48.402;9.994;2022-07-24T12:14:19;44.50;23.70
13585;DHT22;6863;48.402;9.994;2022-07-24T12:16:52;44.20;24.00
13585;DHT22;6863;48.402;9.994;2022-07-24T12:19:23;44.60;24.10
13585;DHT22;6863;48.402;9.994;2022-07-24T12:21:51;45.60;23.50
13585;DHT22;6863;48.402;9.994;2022-07-24T12:24:18;47.00;21.80
13585;DHT22;6863;48.402;9.994;2022-07-24T12:26:57;47.60;21.30
13585;DHT22;6863;48.402;9.994;2022-07-24T12:29:25;48.40;21.00
13585;DHT22;6863;48.402;9.994;2022-07-24T12:32:15;49.00;20.20
13585;DHT22;6863;48.402;9.994;2022-07-24T12:34:45;49.70;19.90
13585;DHT22;6863;48.402;9.994;2022-07-24T12:37:17;50.40;19.50
13585;DHT22;6863;48.402;9.994;2022-07-24T12:39:52;50.20;19.40
13585;DHT22;6863;48.402;9.994;2022-07-24T12:42:29;48.80;20.30
13585;DHT22;6863;48.402;9.994;2022-07-24T12:45:08;49.20;20.40
13585;DHT22;6863;48.402;9.994;2022-07-24T12:50:19;49.00;20.20
13585;DHT22;6863;48.402;9.994;2022-07-24T12:52:49;46.20;21.90
13585;DHT22;6863;48.402;9.994;2022-07-24T12:55:20;46.20;22.00
13585;DHT22;6863;48.402;9.994;2022-07-24T12:57:46;46.30;21.80
13585;DHT22;6863;48.402;9.994;2022-07-24T13:00:12;44.90;22.90
13585;DHT22;6863;48.402;9.994;2022-07-24T13:02:38;45.60;22.60
13585;DHT22;6863;48.402;9.994;2022-07-24T13:05:07;46.60;21.60
13585;DHT22;6863;48.402;9.994;2022-07-24T13:07:32;45.80;22.10
13585;DHT22;6863;48.402;9.994;2022-07-24T13:09:58;46.70;21.30
13585;DHT22;6863;48.402;9.994;2022-07-24T13:12:23;47.50;20.70
13585;DHT22;6863;48.402;9.994;2022-07-24T13:14:50;47.10;21.10
13585;DHT22;6863;48.402;9.994;2022-07-24T13:17:17;47.70;20.60
13585;DHT22;6863;48.402;9.994;2022-07-24T13:19:50;47.20;20.80
13585;DHT22;6863;48.402;9.994;2022-07-24T13:22:16;47.40;21.00
13585;DHT22;6863;48.402;9.994;2022-07-24T13:24:42;48.50;20.30
13585;DHT22;6863;48.402;9.994;2022-07-24T13:27:10;49.10;19.90
13585;DHT22;6863;48.402;9.994;2022-07-24T13:29:38;48.70;20.30
13585;DHT22;6863;48.402;9.994;2022-07-24T13:32:04;48.40;20.40
13585;DHT22;6863;48.402;9.994;2022-07-24T13:34:30;48.30;20.20
13585;DHT22;6863;48.402;9.994;2022-07-24T13:36:55;48.40;20.20
13585;DHT22;6863;48.402;9.994;2022-07-24T13:39:22;47.00;21.10
13585;DHT22;6863;48.402;9.994;2022-07-24T13:41:48;45.50;22.00
13585;DHT22;6863;48.402;9.994;2022-07-24T13:44:14;46.20;21.50
13585;DHT22;6863;48.402;9.994;2022-07-24T13:46:41;45.60;21.80
13585;DHT22;6863;48.402;9.994;2022-07-24T13:49:07;42.60;24.00
13585;DHT22;6863;48.402;9.994;2022-07-24T13:51:34;43.20;23.90
13585;DHT22;6863;48.402;9.994;2022-07-24T13:54:00;44.00;23.30
13585;DHT22;6863;48.402;9.994;2022-07-24T13:56:26;44.30;23.10
13585;DHT22;6863;48.402;9.994;2022-07-24T13:58:53;44.70;22.50
13585;DHT22;6863;48.402;9.994;2022-07-24T14:01:19;44.30;22.80
13585;DHT22;6863;48.402;9.994;2022-07-24T14:03:45;44.60;22.50
13585;DHT22;6863;48.402;9.994;2022-07-24T14:06:11;45.70;21.90
13585;DHT22;6863;48.402;9.994;2022-07-24T14:08:38;46.30;21.50
13585;DHT22;6863;48.402;9.994;2022-07-24T14:11:05;45.70;21.90
13585;DHT22;6863;48.402;9.994;2022-07-24T14:13:30;45.90;21.80
13585;DHT22;6863;48.402;9.994;2022-07-24T14:15:56;44.90;22.80
13585;DHT22;6863;48.402;9.994;2022-07-24T14:18:22;45.00;22.50
13585;DHT22;6863;48.402;9.994;2022-07-24T14:20:48;45.80;22.10
13585;DHT22;6863;48.402;9.994;2022-07-24T14:23:14;46.50;21.20
13585;DHT22;6863;48.402;9.994;2022-07-24T14:25:39;46.90;21.30
13585;DHT22;6863;48.402;9.994;2022-07-24T14:28:05;46.90;21.00
13585;DHT22;6863;48.402;9.994;2022-07-24T14:30:31;47.20;20.80
13585;DHT22;6863;48.402;9.994;2022-07-24T14:32:57;47.60;20.40
13585;DHT22;6863;48.402;9.994;2022-07-24T14:35:22;47.30;20.80
13585;DHT22;6863;48.402;9.994;2022-07-24T14:37:48;46.70;21.10
13585;DHT22;6863;48.402;9.994;2022-07-24T14:40:14;46.30;21.30
13585;DHT22;6863;48.402;9.994;2022-07-24T14:42:40;45.80;21.40
13585;DHT22;6863;48.402;9.994;2022-07-24T14:45:06;44.70;22.40
13585;DHT22;6863;48.402;9.994;2022-07-24T14:47:32;43.60;23.40
13585;DHT22;6863;48.402;9.994;2022-07-24T14:49:57;43.70;23.40
13585;DHT22;6863;48.402;9.994;2022-07-24T14:52:24;44.10;22.90
13585;DHT22;6863;48.402;9.994;2022-07-24T14:54:50;44.00;23.00
13585;DHT22;6863;48.402;9.994;2022-07-24T14:57:16;42.90;23.70
13585;DHT22;6863;48.402;9.994;2022-07-24T14:59:42;41.60;24.60
13585;DHT22;6863;48.402;9.994;2022-07-24T15:02:09;40.60;25.70
13585;DHT22;6863;48.402;9.994;2022-07-24T15:04:35;39.60;26.80
13585;DHT22;6863;48.402;9.994;2022-07-24T15:07:01;39.10;27.10
13585;DHT22;6863;48.402;9.994;2022-07-24T15:09:26;38.90;27.20
13585;DHT22;6863;48.402;9.994;2022-07-24T15:11:52;38.70;27.40
13585;DHT22;6863;48.402;9.994;2022-07-24T15:14:18;38.50;27.20
13585;DHT22;6863;48.402;9.994;2022-07-24T15:16:43;38.40;27.50
13585;DHT22;6863;48.402;9.994;2022-07-24T15:19:09;37.80;27.60
13585;DHT22;6863;48.402;9.994;2022-07-24T15:21:35;36.80;28.80
13585;DHT22;6863;48.402;9.994;2022-07-24T15:24:01;36.30;29.30
13585;DHT22;6863;48.402;9.994;2022-07-24T15:26:27;35.00;31.10
13585;DHT22;6863;48.402;9.994;2022-07-24T15:28:52;34.10;32.00
13585;DHT22;6863;48.402;9.994;2022-07-24T15:31:18;33.30;33.50
13585;DHT22;6863;48.402;9.994;2022-07-24T15:33:44;32.80;34.40
13585;DHT22;6863;48.402;9.994;2022-07-24T15:36:10;32.70;34.30
13585;DHT22;6863;48.402;9.994;2022-07-24T15:38:36;32.90;34.00
13585;DHT22;6863;48.402;9.994;2022-07-24T15:41:01;33.10;33.70
13585;DHT22;6863;48.402;9.994;2022-07-24T15:43:27;33.30;33.90
13585;DHT22;6863;48.402;9.994;2022-07-24T15:45:53;33.20;33.30
13585;DHT22;6863;48.402;9.994;2022-07-24T15:48:18;33.10;33.20
13585;DHT22;6863;48.402;9.994;2022-07-24T15:50:45;33.10;33.40
13585;DHT22;6863;48.402;9.994;2022-07-24T15:53:10;33.00;33.80
13585;DHT22;6863;48.402;9.994;2022-07-24T15:55:36;32.70;34.20
13585;DHT22;6863;48.402;9.994;2022-07-24T15:58:02;32.70;34.30
13585;DHT22;6863;48.402;9.994;2022-07-24T16:00:28;32.80;34.60
13585;DHT22;6863;48.402;9.994;2022-07-24T16:02:54;32.60;34.80
13585;DHT22;6863;48.402;9.994;2022-07-24T16:05:19;32.30;35.20
13585;DHT22;6863;48.402;9.994;2022-07-24T16:07:49;32.40;35.10
13585;DHT22;6863;48.402;9.994;2022-07-24T16:10:14;32.60;34.60
13585;DHT22;6863;48.402;9.994;2022-07-24T16:12:42;32.60;34.60
13585;DHT22;6863;48.402;9.994;2022-07-24T16:15:08;32.60;34.10
13585;DHT22;6863;48.402;9.994;2022-07-24T16:17:34;32.60;34.10
13585;DHT22;6863;48.402;9.994;2022-07-24T16:20:00;32.60;34.10